sensor_id;sensor_type;location;lat;lon;timestamp;temperature;humidity
13798;DHT22;6970;51.340;3.240;2024-02-28T00:01:00;6.30;99.90
13798;DHT22;6970;51.340;3.240;2024-02-28T00:03:28;6.30;99.90
13798;DHT22;6970;51.340;3.240;2024-02-28T00:05:55;6.30;99.90
13798;DHT22;6970;51.340;3.240;2024-02-28T00:08:24;6.30;99.90
13798;DHT22;6970;51.340;3.240;2024-02-28T00:10:52;6.30;99.90
13798;DHT22;6970;51.340;3.240;2024-02-28T00:13:23;6.30;99.90
13798;DHT22;6970;51.340;3.240;2024-02-28T00:15:54;6.20;99.90
13798;DHT22;6970;51.340;3.240;2024-02-28T00:18:23;6.20;99.90
13798;DHT22;6970;51.340;3.240;2024-02-28T00:20:53;6.20;99.90
13798;DHT22;6970;51.340;3.240;2024-02-28T00:23:21;6.20;99.90
13798;DHT22;6970;51.340;3.240;2024-02-28T00:25:51;6.20;99.90
13798;DHT22;6970;51.340;3.240;2024-02-28T00:28:20;6.20;99.90
13798;DHT22;6970;51.340;3.240;2024-02-28T00:30:48;6.20;99.90
13798;DHT22;6970;51.340;3.240;2024-02-28T00:33:15;6.20;99.90
13798;DHT22;6970;51.340;3.240;2024-02-28T00:35:45;6.20;99.90
13798;DHT22;6970;51.340;3.240;2024-02-28T00:38:13;6.10;99.90
13798;DHT22;6970;51.340;3.240;2024-02-28T00:40:43;6.10;99.90
13798;DHT22;6970;51.340;3.240;2024-02-28T00:43:11;6.10;99.90
13798;DHT22;6970;51.340;3.240;2024-02-28T00:45:40;6.10;99.90
13798;DHT22;6970;51.340;3.240;2024-02-28T00:48:14;6.10;99.90
13798;DHT22;6970;51.340;3.240;2024-02-28T00:50:41;6.20;99.90
13798;DHT22;6970;51.340;3.240;2024-02-28T00:53:08;6.10;99.90
13798;DHT22;6970;51.340;3.240;2024-02-28T00:55:38;6.20;99.90
13798;DHT22;6970;51.340;3.240;2024-02-28T00:58:05;6.20;99.90
13798;DHT22;6970;51.340;3.240;2024-02-28T01:00:33;6.20;99.90
13798;DHT22;6970;51.340;3.240;2024-02-28T01:03:03;6.20;99.90
13798;DHT22;6970;51.340;3.240;2024-02-28T01:05:34;6.20;99.90
13798;DHT22;6970;51.340;3.240;2024-02-28T01:08:03;6.20;99.90
13798;DHT22;6970;51.340;3.240;2024-02-28T01:10:33;6.30;99.90
13798;DHT22;6970;51.340;3.240;2024-02-28T01:13:04;6.30;99.90
13798;DHT22;6970;51.340;3.240;2024-02-28T01:15:34;6.40;99.90
13798;DHT22;6970;51.340;3.240;2024-02-28T01:18:04;6.40;99.90
13798;DHT22;6970;51.340;3.240;2024-02-28T01:20:34;6.40;99.90
13798;DHT22;6970;51.340;3.240;2024-02-28T01:23:05;6.40;99.90
13798;DHT22;6970;51.340;3.240;2024-02-28T01:25:34;6.50;99.90
13798;DHT22;6970;51.340;3.240;2024-02-28T01:28:04;6.50;99.90
13798;DHT22;6970;51.340;3.240;2024-02-28T01:30:32;6.50;99.90
13798;DHT22;6970;51.340;3.240;2024-02-28T01:32:59;6.50;99.90
13798;DHT22;6970;51.340;3.240;2024-02-28T01:35:28;6.50;99.90
13798;DHT22;6970;51.340;3.240;2024-02-28T01:37:58;6.50;99.90
13798;DHT22;6970;51.340;3.240;2024-02-28T01:40:25;6.50;99.90
13798;DHT22;6970;51.340;3.240;2024-02-28T01:42:55;6.50;99.90
13798;DHT22;6970;51.340;3.240;2024-02-28T01:45:22;6.40;99.90
13798;DHT22;6970;51.340;3.240;2024-02-28T01:47:49;6.40;99.90
13798;DHT22;6970;51.340;3.240;2024-02-28T01:50:16;6.40;99.90
13798;DHT22;6970;51.340;3.240;2024-02-28T01:52:45;6.40;99.90
13798;DHT22;6970;51.340;3.240;2024-02-28T01:55:15;6.30;99.90
13798;DHT22;6970;51.340;3.240;2024-02-28T01:57:45;6.30;99.90
13798;DHT22;6970;51.340;3.240;2024-02-28T02:00:13;6.30;99.90
13798;DHT22;6970;51.340;3.240;2024-02-28T02:02:42;6.30;99.90
13798;DHT22;6970;51.340;3.240;2024-02-28T02:05:09;6.30;99.90
13798;DHT22;6970;51.340;3.240;2024-02-28T02:07:39;6.30;99.90
13798;DHT22;6970;51.340;3.240;2024-02-28T02:10:08;6.40;99.90
13798;DHT22;6970;51.340;3.240;2024-02-28T02:12:39;6.30;99.90
13798;DHT22;6970;51.340;3.240;2024-02-28T02:15:12;6.30;99.90
13798;DHT22;6970;51.340;3.240;2024-02-28T02:17:40;6.30;99.90
13798;DHT22;6970;51.340;3.240;2024-02-28T02:20:11;6.40;99.90
13798;DHT22;6970;51.340;3.240;2024-02-28T02:22:44;6.40;99.90
13798;DHT22;6970;51.340;3.240;2024-02-28T02:25:14;6.40;99.90
13798;DHT22;6970;51.340;3.240;2024-02-28T02:27:42;6.50;99.90
13798;DHT22;6970;51.340;3.240;2024-02-28T02:30:11;6.50;99.90
13798;DHT22;6970;51.340;3.240;2024-02-28T02:32:41;6.50;99.90
13798;DHT22;6970;51.340;3.240;2024-02-28T02:35:08;6.50;99.90
13798;DHT22;6970;51.340;3.240;2024-02-28T02:37:35;6.60;99.90
13798;DHT22;6970;51.340;3.240;2024-02-28T02:40:06;6.60;99.90
13798;DHT22;6970;51.340;3.240;2024-02-28T02:42:36;6.60;99.90
13798;DHT22;6970;51.340;3.240;2024-02-28T02:45:10;6.70;99.90
13798;DHT22;6970;51.340;3.240;2024-02-28T02:47:39;6.70;99.90
13798;DHT22;6970;51.340;3.240;2024-02-28T02:50:07;6.70;99.90
13798;DHT22;6970;51.340;3.240;2024-02-28T02:52:37;6.70;99.90
13798;DHT22;6970;51.340;3.240;2024-02-28T02:55:05;6.70;99.90
13798;DHT22;6970;51.340;3.240;2024-02-28T02:57:33;6.70;99.90
13798;DHT22;6970;51.340;3.240;2024-02-28T03:00:03;6.70;99.90
13798;DHT22;6970;51.340;3.240;2024-02-28T03:02:32;6.70;99.90
13798;DHT22;6970;51.340;3.240;2024-02-28T03:04:59;6.70;99.90
13798;DHT22;6970;51.340;3.240;2024-02-28T03:07:32;6.80;99.90
13798;DHT22;6970;51.340;3.240;2024-02-28T03:10:02;6.80;99.90
13798;DHT22;6970;51.340;3.240;2024-02-28T03:12:31;6.80;99.90
13798;DHT22;6970;51.340;3.240;2024-02-28T03:14:59;6.80;99.90
13798;DHT22;6970;51.340;3.240;2024-02-28T03:17:27;6.80;99.90
13798;DHT22;6970;51.340;3.240;2024-02-28T03:20:01;6.80;99.90
13798;DHT22;6970;51.340;3.240;2024-02-28T03:22:31;6.90;99.90
13798;DHT22;6970;51.340;3.240;2024-02-28T03:24:58;6.90;99.90
13798;DHT22;6970;51.340;3.240;2024-02-28T03:27:28;6.90;99.90
13798;DHT22;6970;51.340;3.240;2024-02-28T03:29:56;6.90;99.90
13798;DHT22;6970;51.340;3.240;2024-02-28T03:32:25;6.80;99.90
13798;DHT22;6970;51.340;3.240;2024-02-28T03:35:00;6.90;99.90
13798;DHT22;6970;51.340;3.240;2024-02-28T03:37:28;6.90;99.90
13798;DHT22;6970;51.340;3.240;2024-02-28T03:39:56;6.90;99.90
13798;DHT22;6970;51.340;3.240;2024-02-28T03:42:26;6.90;99.90
13798;DHT22;6970;51.340;3.240;2024-02-28T03:44:55;6.80;99.90
13798;DHT22;6970;51.340;3.240;2024-02-28T03:47:23;6.80;99.90
13798;DHT22;6970;51.340;3.240;2024-02-28T03:49:52;6.80;99.90
13798;DHT22;6970;51.340;3.240;2024-02-28T03:52:20;6.80;99.90
13798;DHT22;6970;51.340;3.240;2024-02-28T03:54:49;6.80;99.90
13798;DHT22;6970;51.340;3.240;2024-02-28T03:57:16;6.70;99.90
13798;DHT22;6970;51.340;3.240;2024-02-28T03:59:44;6.60;99.90
13798;DHT22;6970;51.340;3.240;2024-02-28T04:02:11;6.60;99.90
13798;DHT22;6970;51.340;3.240;2024-02-28T04:04:38;6.60;99.90
13798;DHT22;6970;51.340;3.240;2024-02-28T04:07:06;6.70;99.90
13798;DHT22;6970;51.340;3.240;2024-02-28T04:09:34;6.60;99.90
13798;DHT22;6970;51.340;3.240;2024-02-28T04:12:03;6.60;99.90
13798;DHT22;6970;51.340;3.240;2024-02-28T04:14:31;6.60;99.90
13798;DHT22;6970;51.340;3.240;2024-02-28T04:16:58;6.70;99.90
13798;DHT22;6970;51.340;3.240;2024-02-28T04:19:25;6.70;99.90
13798;DHT22;6970;51.340;3.240;2024-02-28T04:21:55;6.70;99.90
13798;DHT22;6970;51.340;3.240;2024-02-28T04:24:23;6.80;99.90
13798;DHT22;6970;51.340;3.240;2024-02-28T04:26:53;6.80;99.90
13798;DHT22;6970;51.340;3.240;2024-02-28T04:29:21;6.80;99.90
13798;DHT22;6970;51.340;3.240;2024-02-28T04:31:50;6.90;99.90
13798;DHT22;6970;51.340;3.240;2024-02-28T04:34:17;6.90;99.90
13798;DHT22;6970;51.340;3.240;2024-02-28T04:36:44;6.90;99.90
13798;DHT22;6970;51.340;3.240;2024-02-28T04:39:14;7.00;99.90
13798;DHT22;6970;51.340;3.240;2024-02-28T04:41:43;7.00;99.90
13798;DHT22;6970;51.340;3.240;2024-02-28T04:44:11;7.00;99.90
13798;DHT22;6970;51.340;3.240;2024-02-28T04:46:40;7.10;99.90
13798;DHT22;6970;51.340;3.240;2024-02-28T04:49:09;7.10;99.90
13798;DHT22;6970;51.340;3.240;2024-02-28T04:51:39;7.10;99.90
13798;DHT22;6970;51.340;3.240;2024-02-28T04:54:09;7.20;99.90
13798;DHT22;6970;51.340;3.240;2024-02-28T04:56:43;7.20;99.90
13798;DHT22;6970;51.340;3.240;2024-02-28T04:59:13;7.20;99.90
13798;DHT22;6970;51.340;3.240;2024-02-28T05:01:44;7.30;99.90
13798;DHT22;6970;51.340;3.240;2024-02-28T05:04:12;7.30;99.90
13798;DHT22;6970;51.340;3.240;2024-02-28T05:06:40;7.20;99.90
13798;DHT22;6970;51.340;3.240;2024-02-28T05:09:11;7.30;99.90
13798;DHT22;6970;51.340;3.240;2024-02-28T05:11:42;7.30;99.90
13798;DHT22;6970;51.340;3.240;2024-02-28T05:14:12;7.30;99.90
13798;DHT22;6970;51.340;3.240;2024-02-28T05:16:42;7.30;99.90
13798;DHT22;6970;51.340;3.240;2024-02-28T05:19:09;7.30;99.90
13798;DHT22;6970;51.340;3.240;2024-02-28T05:21:41;7.30;99.90
13798;DHT22;6970;51.340;3.240;2024-02-28T05:24:11;7.30;99.90
13798;DHT22;6970;51.340;3.240;2024-02-28T05:26:41;7.30;99.90
13798;DHT22;6970;51.340;3.240;2024-02-28T05:29:12;7.30;99.90
13798;DHT22;6970;51.340;3.240;2024-02-28T05:31:39;7.40;99.90
13798;DHT22;6970;51.340;3.240;2024-02-28T05:34:06;7.40;99.90
13798;DHT22;6970;51.340;3.240;2024-02-28T05:36:33;7.40;99.90
13798;DHT22;6970;51.340;3.240;2024-02-28T05:39:01;7.40;99.90
13798;DHT22;6970;51.340;3.240;2024-02-28T05:41:28;7.40;99.90
13798;DHT22;6970;51.340;3.240;2024-02-28T05:43:55;7.40;99.90
13798;DHT22;6970;51.340;3.240;2024-02-28T05:46:26;7.40;99.90
13798;DHT22;6970;51.340;3.240;2024-02-28T05:48:56;7.40;99.90
13798;DHT22;6970;51.340;3.240;2024-02-28T05:51:23;7.40;99.90
13798;DHT22;6970;51.340;3.240;2024-02-28T05:53:51;7.40;99.90
13798;DHT22;6970;51.340;3.240;2024-02-28T05:56:19;7.40;99.90
13798;DHT22;6970;51.340;3.240;2024-02-28T05:58:50;7.40;99.90
13798;DHT22;6970;51.340;3.240;2024-02-28T06:01:18;7.40;99.90
13798;DHT22;6970;51.340;3.240;2024-02-28T06:03:50;7.40;99.90
13798;DHT22;6970;51.340;3.240;2024-02-28T06:06:23;7.40;99.90
13798;DHT22;6970;51.340;3.240;2024-02-28T06:08:53;7.40;99.90
13798;DHT22;6970;51.340;3.240;2024-02-28T06:11:21;7.30;99.90
13798;DHT22;6970;51.340;3.240;2024-02-28T06:13:51;7.40;99.90
13798;DHT22;6970;51.340;3.240;2024-02-28T06:16:20;7.40;99.90
13798;DHT22;6970;51.340;3.240;2024-02-28T06:18:48;7.40;99.90
13798;DHT22;6970;51.340;3.240;2024-02-28T06:21:22;7.40;99.90
13798;DHT22;6970;51.340;3.240;2024-02-28T06:23:53;7.40;99.90
13798;DHT22;6970;51.340;3.240;2024-02-28T06:26:20;7.40;99.90
13798;DHT22;6970;51.340;3.240;2024-02-28T06:28:47;7.40;99.90
13798;DHT22;6970;51.340;3.240;2024-02-28T06:31:18;7.40;99.90
13798;DHT22;6970;51.340;3.240;2024-02-28T06:33:49;7.40;99.90
13798;DHT22;6970;51.340;3.240;2024-02-28T06:36:19;7.40;99.90
13798;DHT22;6970;51.340;3.240;2024-02-28T06:38:46;7.50;99.90
13798;DHT22;6970;51.340;3.240;2024-02-28T06:41:13;7.50;99.90
13798;DHT22;6970;51.340;3.240;2024-02-28T06:43:43;7.50;99.90
13798;DHT22;6970;51.340;3.240;2024-02-28T06:46:14;7.50;99.90
13798;DHT22;6970;51.340;3.240;2024-02-28T06:48:46;7.50;99.90
13798;DHT22;6970;51.340;3.240;2024-02-28T06:51:16;7.50;99.90
13798;DHT22;6970;51.340;3.240;2024-02-28T06:53:46;7.50;99.90
13798;DHT22;6970;51.340;3.240;2024-02-28T06:56:14;7.50;99.90
13798;DHT22;6970;51.340;3.240;2024-02-28T06:58:42;7.50;99.90
13798;DHT22;6970;51.340;3.240;2024-02-28T07:01:12;7.50;99.90
13798;DHT22;6970;51.340;3.240;2024-02-28T07:03:42;7.50;99.90
13798;DHT22;6970;51.340;3.240;2024-02-28T07:06:13;7.50;99.90
13798;DHT22;6970;51.340;3.240;2024-02-28T07:08:40;7.50;99.90
13798;DHT22;6970;51.340;3.240;2024-02-28T07:11:17;7.50;99.90
13798;DHT22;6970;51.340;3.240;2024-02-28T07:13:44;7.50;99.90
13798;DHT22;6970;51.340;3.240;2024-02-28T07:16:11;7.50;99.90
13798;DHT22;6970;51.340;3.240;2024-02-28T07:18:38;7.50;99.90
13798;DHT22;6970;51.340;3.240;2024-02-28T07:21:06;7.60;99.90
13798;DHT22;6970;51.340;3.240;2024-02-28T07:23:40;7.60;99.90
13798;DHT22;6970;51.340;3.240;2024-02-28T07:26:16;7.70;99.90
13798;DHT22;6970;51.340;3.240;2024-02-28T07:28:56;7.70;99.90
13798;DHT22;6970;51.340;3.240;2024-02-28T07:31:24;7.80;99.90
13798;DHT22;6970;51.340;3.240;2024-02-28T07:33:52;7.80;99.90
13798;DHT22;6970;51.340;3.240;2024-02-28T07:36:21;7.80;99.90
13798;DHT22;6970;51.340;3.240;2024-02-28T07:38:50;7.80;99.90
13798;DHT22;6970;51.340;3.240;2024-02-28T07:41:19;7.80;99.90
13798;DHT22;6970;51.340;3.240;2024-02-28T07:43:47;7.80;99.90
13798;DHT22;6970;51.340;3.240;2024-02-28T07:46:15;7.80;99.90
13798;DHT22;6970;51.340;3.240;2024-02-28T07:48:43;7.90;99.90
13798;DHT22;6970;51.340;3.240;2024-02-28T07:51:10;7.90;99.90
13798;DHT22;6970;51.340;3.240;2024-02-28T07:53:41;7.90;99.90
13798;DHT22;6970;51.340;3.240;2024-02-28T07:56:16;8.00;99.90
13798;DHT22;6970;51.340;3.240;2024-02-28T07:58:47;8.00;99.90
13798;DHT22;6970;51.340;3.240;2024-02-28T08:01:17;8.00;99.90
13798;DHT22;6970;51.340;3.240;2024-02-28T08:03:44;8.10;99.90
13798;DHT22;6970;51.340;3.240;2024-02-28T08:06:16;8.10;99.90
13798;DHT22;6970;51.340;3.240;2024-02-28T08:08:49;8.10;99.90
13798;DHT22;6970;51.340;3.240;2024-02-28T08:11:19;8.10;99.90
13798;DHT22;6970;51.340;3.240;2024-02-28T08:13:48;8.20;99.90
13798;DHT22;6970;51.340;3.240;2024-02-28T08:16:15;8.10;99.90
13798;DHT22;6970;51.340;3.240;2024-02-28T08:18:42;8.20;99.90
13798;DHT22;6970;51.340;3.240;2024-02-28T08:21:09;8.20;99.90
13798;DHT22;6970;51.340;3.240;2024-02-28T08:23:37;8.20;99.90
13798;DHT22;6970;51.340;3.240;2024-02-28T08:26:07;8.20;99.90
13798;DHT22;6970;51.340;3.240;2024-02-28T08:28:37;8.30;99.90
13798;DHT22;6970;51.340;3.240;2024-02-28T08:31:04;8.30;99.90
13798;DHT22;6970;51.340;3.240;2024-02-28T08:33:31;8.30;99.90
13798;DHT22;6970;51.340;3.240;2024-02-28T08:36:02;8.30;99.90
13798;DHT22;6970;51.340;3.240;2024-02-28T08:38:32;8.30;99.90
13798;DHT22;6970;51.340;3.240;2024-02-28T08:41:01;8.40;99.90
13798;DHT22;6970;51.340;3.240;2024-02-28T08:43:29;8.50;99.90
13798;DHT22;6970;51.340;3.240;2024-02-28T08:45:57;8.50;99.90
13798;DHT22;6970;51.340;3.240;2024-02-28T08:48:25;8.60;99.90
13798;DHT22;6970;51.340;3.240;2024-02-28T08:50:55;8.60;99.90
13798;DHT22;6970;51.340;3.240;2024-02-28T08:53:26;8.60;99.90
13798;DHT22;6970;51.340;3.240;2024-02-28T08:55:56;8.60;99.90
13798;DHT22;6970;51.340;3.240;2024-02-28T08:58:26;8.70;99.90
13798;DHT22;6970;51.340;3.240;2024-02-28T09:00:54;8.70;99.90
13798;DHT22;6970;51.340;3.240;2024-02-28T09:03:25;8.80;99.90
13798;DHT22;6970;51.340;3.240;2024-02-28T09:05:53;8.80;99.90
13798;DHT22;6970;51.340;3.240;2024-02-28T09:08:21;8.90;99.90
13798;DHT22;6970;51.340;3.240;2024-02-28T09:10:49;8.90;99.90
13798;DHT22;6970;51.340;3.240;2024-02-28T09:13:17;8.90;99.90
13798;DHT22;6970;51.340;3.240;2024-02-28T09:15:45;8.90;99.90
13798;DHT22;6970;51.340;3.240;2024-02-28T09:18:14;9.00;99.90
13798;DHT22;6970;51.340;3.240;2024-02-28T09:20:44;9.00;99.90
13798;DHT22;6970;51.340;3.240;2024-02-28T09:23:14;9.10;99.90
13798;DHT22;6970;51.340;3.240;2024-02-28T09:25:41;9.20;99.90
13798;DHT22;6970;51.340;3.240;2024-02-28T09:28:09;9.30;99.90
13798;DHT22;6970;51.340;3.240;2024-02-28T09:30:42;9.40;99.90
13798;DHT22;6970;51.340;3.240;2024-02-28T09:33:19;9.60;99.90
13798;DHT22;6970;51.340;3.240;2024-02-28T09:35:48;9.70;99.90
13798;DHT22;6970;51.340;3.240;2024-02-28T09:38:15;9.70;99.90
13798;DHT22;6970;51.340;3.240;2024-02-28T09:40:46;9.70;99.90
13798;DHT22;6970;51.340;3.240;2024-02-28T09:43:36;9.70;99.90
13798;DHT22;6970;51.340;3.240;2024-02-28T09:46:08;9.60;99.90
13798;DHT22;6970;51.340;3.240;2024-02-28T09:48:42;9.60;99.90
13798;DHT22;6970;51.340;3.240;2024-02-28T09:51:16;9.70;99.90
13798;DHT22;6970;51.340;3.240;2024-02-28T09:53:45;9.70;99.90
13798;DHT22;6970;51.340;3.240;2024-02-28T09:56:12;9.60;99.90
13798;DHT22;6970;51.340;3.240;2024-02-28T09:58:40;9.60;99.90
13798;DHT22;6970;51.340;3.240;2024-02-28T10:01:19;9.60;99.90
13798;DHT22;6970;51.340;3.240;2024-02-28T10:03:50;9.60;99.90
13798;DHT22;6970;51.340;3.240;2024-02-28T10:06:21;9.60;99.90
13798;DHT22;6970;51.340;3.240;2024-02-28T10:08:49;9.70;99.90
13798;DHT22;6970;51.340;3.240;2024-02-28T10:11:24;9.70;99.90
13798;DHT22;6970;51.340;3.240;2024-02-28T10:13:54;9.80;99.90
13798;DHT22;6970;51.340;3.240;2024-02-28T10:16:25;9.90;99.90
13798;DHT22;6970;51.340;3.240;2024-02-28T10:18:52;9.90;99.90
13798;DHT22;6970;51.340;3.240;2024-02-28T10:21:22;9.90;99.90
13798;DHT22;6970;51.340;3.240;2024-02-28T10:23:51;9.90;99.90
13798;DHT22;6970;51.340;3.240;2024-02-28T10:26:18;9.90;99.90
13798;DHT22;6970;51.340;3.240;2024-02-28T10:28:48;9.80;99.90
13798;DHT22;6970;51.340;3.240;2024-02-28T10:31:21;9.80;99.90
13798;DHT22;6970;51.340;3.240;2024-02-28T10:33:48;9.80;99.90
13798;DHT22;6970;51.340;3.240;2024-02-28T10:36:18;9.80;99.90
13798;DHT22;6970;51.340;3.240;2024-02-28T10:38:47;10.00;99.90
13798;DHT22;6970;51.340;3.240;2024-02-28T10:41:14;10.00;99.90
13798;DHT22;6970;51.340;3.240;2024-02-28T10:43:43;10.10;99.90
13798;DHT22;6970;51.340;3.240;2024-02-28T10:46:13;10.10;99.90
13798;DHT22;6970;51.340;3.240;2024-02-28T10:49:05;10.10;99.90
13798;DHT22;6970;51.340;3.240;2024-02-28T10:51:36;10.20;99.90
13798;DHT22;6970;51.340;3.240;2024-02-28T10:54:13;10.10;99.90
13798;DHT22;6970;51.340;3.240;2024-02-28T10:56:43;10.10;99.90
13798;DHT22;6970;51.340;3.240;2024-02-28T10:59:14;10.10;99.90
13798;DHT22;6970;51.340;3.240;2024-02-28T11:01:43;10.10;99.90
13798;DHT22;6970;51.340;3.240;2024-02-28T11:04:13;10.00;99.90
13798;DHT22;6970;51.340;3.240;2024-02-28T11:06:55;10.00;99.90
13798;DHT22;6970;51.340;3.240;2024-02-28T11:09:28;10.00;99.90
13798;DHT22;6970;51.340;3.240;2024-02-28T11:11:58;10.10;99.90
13798;DHT22;6970;51.340;3.240;2024-02-28T11:14:25;10.20;99.90
13798;DHT22;6970;51.340;3.240;2024-02-28T11:17:05;10.20;99.90
13798;DHT22;6970;51.340;3.240;2024-02-28T11:19:34;10.20;99.90
13798;DHT22;6970;51.340;3.240;2024-02-28T11:22:04;10.20;99.90
13798;DHT22;6970;51.340;3.240;2024-02-28T11:24:33;10.20;99.90
13798;DHT22;6970;51.340;3.240;2024-02-28T11:27:04;10.20;99.90
13798;DHT22;6970;51.340;3.240;2024-02-28T11:29:36;10.20;99.90
13798;DHT22;6970;51.340;3.240;2024-02-28T11:32:04;10.30;99.90
13798;DHT22;6970;51.340;3.240;2024-02-28T11:34:33;10.30;99.90
13798;DHT22;6970;51.340;3.240;2024-02-28T11:37:01;10.30;99.90
13798;DHT22;6970;51.340;3.240;2024-02-28T11:39:32;10.30;99.90
13798;DHT22;6970;51.340;3.240;2024-02-28T11:42:12;10.40;99.90
13798;DHT22;6970;51.340;3.240;2024-02-28T11:44:56;10.40;99.90
13798;DHT22;6970;51.340;3.240;2024-02-28T11:47:31;10.40;99.90
13798;DHT22;6970;51.340;3.240;2024-02-28T11:50:01;10.40;99.90
13798;DHT22;6970;51.340;3.240;2024-02-28T11:52:30;10.30;99.90
13798;DHT22;6970;51.340;3.240;2024-02-28T11:55:00;10.30;99.90
13798;DHT22;6970;51.340;3.240;2024-02-28T11:57:30;10.30;99.90
13798;DHT22;6970;51.340;3.240;2024-02-28T12:00:10;10.30;99.90
13798;DHT22;6970;51.340;3.240;2024-02-28T12:02:41;10.20;99.90
13798;DHT22;6970;51.340;3.240;2024-02-28T12:05:08;10.10;99.90
13798;DHT22;6970;51.340;3.240;2024-02-28T12:07:36;10.10;99.90
13798;DHT22;6970;51.340;3.240;2024-02-28T12:10:07;10.00;99.90
13798;DHT22;6970;51.340;3.240;2024-02-28T12:12:38;10.00;99.90
13798;DHT22;6970;51.340;3.240;2024-02-28T12:15:09;10.00;99.90
13798;DHT22;6970;51.340;3.240;2024-02-28T12:17:36;10.00;99.90
13798;DHT22;6970;51.340;3.240;2024-02-28T12:20:05;10.00;99.90
13798;DHT22;6970;51.340;3.240;2024-02-28T12:22:36;10.00;99.90
13798;DHT22;6970;51.340;3.240;2024-02-28T12:25:03;10.00;99.90
13798;DHT22;6970;51.340;3.240;2024-02-28T12:27:32;10.10;99.90
13798;DHT22;6970;51.340;3.240;2024-02-28T12:30:00;10.10;99.90
13798;DHT22;6970;51.340;3.240;2024-02-28T12:32:31;10.20;99.90
13798;DHT22;6970;51.340;3.240;2024-02-28T12:34:58;10.20;99.90
13798;DHT22;6970;51.340;3.240;2024-02-28T12:37:25;10.30;99.90
13798;DHT22;6970;51.340;3.240;2024-02-28T12:39:52;10.30;99.90
13798;DHT22;6970;51.340;3.240;2024-02-28T12:42:19;10.30;99.90
13798;DHT22;6970;51.340;3.240;2024-02-28T12:44:54;10.30;99.90
13798;DHT22;6970;51.340;3.240;2024-02-28T12:47:22;10.30;99.90
13798;DHT22;6970;51.340;3.240;2024-02-28T12:49:50;10.30;99.90
13798;DHT22;6970;51.340;3.240;2024-02-28T12:52:20;10.30;99.90
13798;DHT22;6970;51.340;3.240;2024-02-28T12:54:47;10.30;99.90
13798;DHT22;6970;51.340;3.240;2024-02-28T12:57:14;10.40;99.90
13798;DHT22;6970;51.340;3.240;2024-02-28T12:59:46;10.50;99.90
13798;DHT22;6970;51.340;3.240;2024-02-28T13:02:17;10.50;99.90
13798;DHT22;6970;51.340;3.240;2024-02-28T13:04:46;10.50;99.90
13798;DHT22;6970;51.340;3.240;2024-02-28T13:07:16;10.60;99.90
13798;DHT22;6970;51.340;3.240;2024-02-28T13:09:46;10.60;99.90
13798;DHT22;6970;51.340;3.240;2024-02-28T13:12:16;10.60;99.90
13798;DHT22;6970;51.340;3.240;2024-02-28T13:14:45;10.70;99.90
13798;DHT22;6970;51.340;3.240;2024-02-28T13:17:15;10.80;99.90
13798;DHT22;6970;51.340;3.240;2024-02-28T13:19:46;10.70;99.90
13798;DHT22;6970;51.340;3.240;2024-02-28T13:22:16;10.90;99.90
13798;DHT22;6970;51.340;3.240;2024-02-28T13:24:45;10.90;99.90
13798;DHT22;6970;51.340;3.240;2024-02-28T13:27:14;10.90;99.90
13798;DHT22;6970;51.340;3.240;2024-02-28T13:29:44;10.90;99.90
13798;DHT22;6970;51.340;3.240;2024-02-28T13:32:13;11.00;99.90
13798;DHT22;6970;51.340;3.240;2024-02-28T13:34:43;11.10;99.90
13798;DHT22;6970;51.340;3.240;2024-02-28T13:37:18;11.20;99.90
13798;DHT22;6970;51.340;3.240;2024-02-28T13:39:45;11.10;99.90
13798;DHT22;6970;51.340;3.240;2024-02-28T13:42:13;11.10;99.90
13798;DHT22;6970;51.340;3.240;2024-02-28T13:44:44;11.20;99.90
13798;DHT22;6970;51.340;3.240;2024-02-28T13:47:12;11.10;99.90
13798;DHT22;6970;51.340;3.240;2024-02-28T13:49:42;11.10;99.90
13798;DHT22;6970;51.340;3.240;2024-02-28T13:52:12;11.10;99.90
13798;DHT22;6970;51.340;3.240;2024-02-28T13:54:43;11.10;99.90
13798;DHT22;6970;51.340;3.240;2024-02-28T13:57:13;11.00;99.90
13798;DHT22;6970;51.340;3.240;2024-02-28T13:59:42;11.00;99.90
13798;DHT22;6970;51.340;3.240;2024-02-28T14:02:09;11.10;99.90
13798;DHT22;6970;51.340;3.240;2024-02-28T14:04:41;11.00;99.90
13798;DHT22;6970;51.340;3.240;2024-02-28T14:07:09;11.00;99.90
13798;DHT22;6970;51.340;3.240;2024-02-28T14:09:40;11.10;99.90
13798;DHT22;6970;51.340;3.240;2024-02-28T14:12:10;11.00;99.90
13798;DHT22;6970;51.340;3.240;2024-02-28T14:14:39;11.00;99.90
13798;DHT22;6970;51.340;3.240;2024-02-28T14:17:08;11.10;99.90
13798;DHT22;6970;51.340;3.240;2024-02-28T14:19:38;11.10;99.90
13798;DHT22;6970;51.340;3.240;2024-02-28T14:22:05;11.00;99.90
13798;DHT22;6970;51.340;3.240;2024-02-28T14:24:38;11.00;99.90
13798;DHT22;6970;51.340;3.240;2024-02-28T14:27:07;11.00;99.90
13798;DHT22;6970;51.340;3.240;2024-02-28T14:29:37;11.00;99.90
13798;DHT22;6970;51.340;3.240;2024-02-28T14:32:05;11.00;99.90
13798;DHT22;6970;51.340;3.240;2024-02-28T14:34:35;11.00;99.90
13798;DHT22;6970;51.340;3.240;2024-02-28T14:37:05;11.00;99.90
13798;DHT22;6970;51.340;3.240;2024-02-28T14:39:33;11.00;99.90
13798;DHT22;6970;51.340;3.240;2024-02-28T14:42:02;11.00;99.90
13798;DHT22;6970;51.340;3.240;2024-02-28T14:44:29;11.00;99.90
13798;DHT22;6970;51.340;3.240;2024-02-28T14:46:57;11.00;99.90
13798;DHT22;6970;51.340;3.240;2024-02-28T14:49:27;10.90;99.90
13798;DHT22;6970;51.340;3.240;2024-02-28T14:51:55;10.90;99.90
13798;DHT22;6970;51.340;3.240;2024-02-28T14:54:22;10.90;99.90
13798;DHT22;6970;51.340;3.240;2024-02-28T14:56:50;10.90;99.90
13798;DHT22;6970;51.340;3.240;2024-02-28T14:59:20;10.90;99.90
13798;DHT22;6970;51.340;3.240;2024-02-28T15:01:47;10.90;99.90
13798;DHT22;6970;51.340;3.240;2024-02-28T15:04:17;10.90;99.90
13798;DHT22;6970;51.340;3.240;2024-02-28T15:06:47;10.80;99.90
13798;DHT22;6970;51.340;3.240;2024-02-28T15:09:16;10.80;99.90
13798;DHT22;6970;51.340;3.240;2024-02-28T15:11:49;10.80;99.90
13798;DHT22;6970;51.340;3.240;2024-02-28T15:14:19;10.80;99.90
13798;DHT22;6970;51.340;3.240;2024-02-28T15:16:46;10.70;99.90
13798;DHT22;6970;51.340;3.240;2024-02-28T15:19:13;10.80;99.90
13798;DHT22;6970;51.340;3.240;2024-02-28T15:21:41;10.80;99.90
13798;DHT22;6970;51.340;3.240;2024-02-28T15:24:11;10.80;99.90
13798;DHT22;6970;51.340;3.240;2024-02-28T15:26:42;10.80;99.90
13798;DHT22;6970;51.340;3.240;2024-02-28T15:29:16;10.80;99.90
13798;DHT22;6970;51.340;3.240;2024-02-28T15:31:45;10.70;99.90
13798;DHT22;6970;51.340;3.240;2024-02-28T15:34:15;10.80;99.90
13798;DHT22;6970;51.340;3.240;2024-02-28T15:36:43;10.70;99.90
13798;DHT22;6970;51.340;3.240;2024-02-28T15:39:12;10.70;99.90
13798;DHT22;6970;51.340;3.240;2024-02-28T15:41:43;10.70;99.90
13798;DHT22;6970;51.340;3.240;2024-02-28T15:44:13;10.70;99.90
13798;DHT22;6970;51.340;3.240;2024-02-28T15:46:44;10.70;99.90
13798;DHT22;6970;51.340;3.240;2024-02-28T15:49:13;10.70;99.90
13798;DHT22;6970;51.340;3.240;2024-02-28T15:51:45;10.70;99.90
13798;DHT22;6970;51.340;3.240;2024-02-28T15:54:14;10.70;99.90
13798;DHT22;6970;51.340;3.240;2024-02-28T15:56:41;10.70;99.90
13798;DHT22;6970;51.340;3.240;2024-02-28T15:59:13;10.70;99.90
13798;DHT22;6970;51.340;3.240;2024-02-28T16:01:43;10.70;99.90
13798;DHT22;6970;51.340;3.240;2024-02-28T16:04:12;10.70;99.90
13798;DHT22;6970;51.340;3.240;2024-02-28T16:06:42;10.70;99.90
13798;DHT22;6970;51.340;3.240;2024-02-28T16:09:09;10.70;99.90
13798;DHT22;6970;51.340;3.240;2024-02-28T16:11:37;10.70;99.90